createdAt,value
2019-02-05T00:02:04.899Z,3.30
2019-02-05T00:04:34.951Z,3.30
2019-02-05T00:07:04.983Z,3.30
2019-02-05T00:09:35.078Z,3.30
2019-02-05T00:12:05.801Z,3.30
2019-02-05T00:14:36.109Z,3.30
2019-02-05T00:17:06.387Z,3.30
2019-02-05T00:19:36.768Z,3.30
2019-02-05T00:22:06.790Z,3.30
2019-02-05T00:24:36.830Z,3.30
2019-02-05T00:27:07.025Z,3.30
2019-02-05T00:29:37.233Z,3.30
2019-02-05T00:32:07.366Z,3.30
2019-02-05T00:34:37.634Z,3.30
2019-02-05T00:37:07.869Z,3.30
2019-02-05T00:39:38.390Z,3.30
2019-02-05T00:42:08.533Z,3.30
2019-02-05T00:44:38.637Z,3.30
2019-02-05T00:47:08.801Z,3.30
2019-02-05T00:49:39.023Z,3.30
2019-02-05T00:52:09.113Z,3.30
2019-02-05T00:54:39.238Z,3.30
2019-02-05T00:57:09.459Z,3.30
2019-02-05T00:59:39.549Z,3.30
2019-02-05T01:02:09.825Z,3.30
2019-02-05T01:04:40.029Z,3.30
2019-02-05T01:07:10.437Z,3.30
2019-02-05T01:09:41.242Z,3.30
2019-02-05T01:12:11.770Z,3.30
2019-02-05T01:14:41.823Z,3.30
2019-02-05T01:17:11.956Z,3.30
2019-02-05T01:19:42.264Z,3.30
2019-02-05T01:22:12.360Z,3.30
2019-02-05T01:24:42.659Z,3.30
2019-02-05T01:27:12.767Z,3.30
2019-02-05T01:29:42.999Z,3.30
2019-02-05T01:32:13.187Z,3.30
2019-02-05T01:34:43.612Z,3.30
2019-02-05T01:37:13.712Z,3.30
2019-02-05T01:39:43.787Z,3.30
2019-02-05T01:42:13.892Z,3.40
2019-02-05T01:44:43.950Z,3.30
2019-02-05T01:47:13.952Z,3.30
2019-02-05T01:49:44.113Z,3.30
2019-02-05T01:52:14.280Z,3.30
2019-02-05T01:54:44.480Z,3.30
2019-02-05T01:57:14.481Z,3.40
2019-02-05T01:59:44.633Z,3.40
2019-02-05T02:02:15.148Z,3.30
2019-02-05T02:04:45.272Z,3.30
2019-02-05T02:07:15.375Z,3.30
2019-02-05T02:09:45.540Z,3.40
2019-02-05T02:12:15.590Z,3.30
2019-02-05T02:14:45.767Z,3.30
2019-02-05T02:17:16.242Z,3.30
2019-02-05T02:19:46.372Z,3.40
2019-02-05T02:22:16.399Z,3.30
2019-02-05T02:24:46.434Z,3.30
2019-02-05T02:27:16.485Z,3.40
2019-02-05T02:29:46.546Z,3.40
2019-02-05T02:32:16.558Z,3.40
2019-02-05T02:34:46.603Z,3.40
2019-02-05T02:37:16.619Z,3.40
2019-02-05T02:39:46.748Z,3.40
2019-02-05T02:42:16.918Z,3.40
2019-02-05T02:44:47.420Z,3.40
2019-02-05T02:47:17.521Z,3.40
2019-02-05T02:49:47.666Z,3.30
2019-02-05T02:52:17.823Z,3.30
2019-02-05T02:54:47.888Z,3.30
2019-02-05T02:57:17.968Z,3.30
2019-02-05T02:59:48.141Z,3.40
2019-02-05T03:02:18.318Z,3.30
2019-02-05T03:04:48.557Z,3.30
2019-02-05T03:07:18.680Z,3.30
2019-02-05T03:09:48.987Z,3.30
2019-02-05T03:12:19.213Z,3.30
2019-02-05T03:14:49.381Z,3.30
2019-02-05T03:17:19.542Z,3.30
2019-02-05T03:19:49.751Z,3.30
2019-02-05T03:22:19.898Z,3.30
2019-02-05T03:24:53.088Z,3.30
2019-02-05T03:27:23.236Z,3.30
2019-02-05T03:29:53.786Z,3.40
2019-02-05T03:32:23.899Z,3.40
2019-02-05T03:34:54.099Z,3.40
2019-02-05T03:37:24.295Z,3.40
2019-02-05T03:39:54.452Z,3.40
2019-02-05T03:42:24.633Z,3.40
2019-02-05T03:44:55.076Z,3.40
2019-02-05T03:47:25.270Z,3.30
2019-02-05T03:49:55.397Z,3.30
2019-02-05T03:52:57.393Z,3.30
2019-02-05T03:56:05.685Z,3.30
2019-02-05T03:59:02.695Z,3.30
2019-02-05T04:02:12.590Z,3.30
2019-02-05T04:05:16.468Z,3.30
2019-02-05T04:08:38.859Z,3.30
2019-02-05T04:12:05.543Z,3.30
2019-02-05T04:15:35.138Z,3.30
2019-02-05T04:18:27.678Z,3.30
2019-02-05T04:21:22.452Z,3.30
2019-02-05T04:24:10.689Z,3.30
2019-02-05T04:27:27.975Z,3.30
2019-02-05T04:30:33.706Z,3.30
2019-02-05T04:33:38.623Z,3.30
2019-02-05T04:36:37.512Z,3.30
2019-02-05T04:39:43.684Z,3.30
2019-02-05T04:42:45.309Z,3.40
2019-02-05T04:45:57.957Z,3.40
2019-02-05T04:48:54.389Z,3.40
2019-02-05T04:52:04.347Z,3.40
2019-02-05T04:54:59.636Z,3.40
2019-02-05T04:58:01.155Z,3.40
2019-02-05T05:01:09.857Z,3.40
2019-02-05T05:04:18.215Z,3.40
2019-02-05T05:07:35.073Z,3.40
2019-02-05T05:10:07.620Z,3.40
2019-02-05T05:12:37.795Z,3.40
2019-02-05T05:15:09.985Z,3.40
2019-02-05T05:17:40.096Z,3.40
2019-02-05T05:20:12.038Z,3.40
2019-02-05T05:22:42.978Z,3.40
2019-02-05T05:25:13.382Z,3.40
2019-02-05T05:27:43.759Z,3.40
2019-02-05T05:30:17.030Z,3.40
2019-02-05T05:32:47.862Z,3.40
2019-02-05T05:35:18.008Z,3.40
2019-02-05T05:37:48.498Z,3.40
2019-02-05T05:40:18.693Z,3.40
2019-02-05T05:42:48.845Z,3.40
2019-02-05T05:45:18.917Z,3.40
2019-02-05T05:47:48.995Z,3.40
2019-02-05T05:50:21.346Z,3.40
2019-02-05T05:52:50.949Z,3.40
2019-02-05T05:55:21.097Z,3.50
2019-02-05T05:57:51.191Z,3.50
2019-02-05T06:00:21.398Z,3.50
2019-02-05T06:02:52.103Z,3.50
2019-02-05T06:05:22.416Z,3.50
2019-02-05T06:07:52.896Z,3.50
2019-02-05T06:10:23.045Z,3.50
2019-02-05T06:12:53.238Z,3.50
2019-02-05T06:15:23.349Z,3.50
2019-02-05T06:17:53.452Z,3.50
2019-02-05T06:20:23.607Z,3.50
2019-02-05T06:22:54.126Z,3.50
2019-02-05T06:25:24.271Z,3.60
2019-02-05T06:27:54.432Z,3.50
2019-02-05T06:30:24.545Z,3.60
2019-02-05T06:32:54.642Z,3.60
2019-02-05T06:35:24.871Z,3.60
2019-02-05T06:37:55.655Z,3.60
2019-02-05T06:40:26.435Z,3.60
2019-02-05T06:42:56.591Z,3.60
2019-02-05T06:45:26.754Z,3.60
2019-02-05T06:47:56.976Z,3.60
2019-02-05T06:50:27.092Z,3.70
2019-02-05T06:52:58.095Z,3.60
2019-02-05T06:55:29.915Z,3.70
2019-02-05T06:58:00.012Z,3.70
2019-02-05T07:00:30.149Z,3.70
2019-02-05T07:03:00.676Z,3.70
2019-02-05T07:05:31.238Z,3.70
2019-02-05T07:08:01.413Z,3.60
2019-02-05T07:10:31.612Z,3.60
2019-02-05T07:13:01.746Z,3.70
2019-02-05T07:15:31.936Z,3.70
2019-02-05T07:18:02.100Z,3.70
2019-02-05T07:20:32.303Z,3.90
2019-02-05T07:23:02.444Z,4.00
2019-02-05T07:25:32.700Z,3.90
2019-02-05T07:28:03.188Z,3.90
2019-02-05T07:30:33.367Z,3.90
2019-02-05T07:33:03.605Z,3.90
2019-02-05T07:35:33.772Z,3.90
2019-02-05T07:38:05.440Z,3.90
2019-02-05T07:40:35.643Z,3.90
2019-02-05T07:43:06.199Z,3.90
2019-02-05T07:45:36.363Z,3.90
2019-02-05T07:48:06.506Z,3.90
2019-02-05T07:50:36.717Z,3.90
2019-02-05T07:53:07.421Z,3.90
2019-02-05T07:55:37.649Z,3.90
2019-02-05T07:58:07.791Z,4.00
2019-02-05T08:00:38.467Z,4.00
2019-02-05T08:03:08.614Z,4.10
2019-02-05T08:05:38.808Z,4.10
2019-02-05T08:08:09.830Z,4.10
2019-02-05T08:10:40.646Z,4.20
2019-02-05T08:13:10.902Z,4.20
2019-02-05T08:15:41.170Z,4.30
2019-02-05T08:18:11.384Z,4.30
2019-02-05T08:20:41.569Z,4.40
2019-02-05T08:23:11.718Z,4.50
2019-02-05T08:25:42.448Z,4.50
2019-02-05T08:28:12.768Z,4.60
2019-02-05T08:30:45.666Z,4.60
2019-02-05T08:33:15.825Z,4.60
2019-02-05T08:35:46.059Z,4.70
2019-02-05T08:38:16.232Z,4.80
2019-02-05T08:40:48.707Z,4.90
2019-02-05T08:43:19.023Z,5.00
2019-02-05T08:45:56.305Z,5.10
2019-02-05T08:48:21.009Z,5.20
2019-02-05T08:50:51.215Z,5.20
2019-02-05T08:53:21.351Z,5.20
2019-02-05T08:55:51.799Z,5.30
2019-02-05T08:58:30.598Z,5.40
2019-02-05T09:00:53.941Z,5.40
2019-02-05T09:03:24.204Z,5.40
2019-02-05T09:05:54.363Z,5.50
2019-02-05T09:08:25.639Z,5.50
2019-02-05T09:10:56.046Z,5.60
2019-02-05T09:13:26.282Z,5.60
2019-02-05T09:15:58.568Z,5.70
2019-02-05T09:18:28.741Z,5.70
2019-02-05T09:20:58.931Z,5.80
2019-02-05T09:23:29.083Z,5.80
2019-02-05T09:25:59.649Z,5.90
2019-02-05T09:28:29.931Z,5.90
2019-02-05T09:31:00.181Z,6.00
2019-02-05T09:33:30.599Z,6.10
2019-02-05T09:36:00.784Z,6.20
2019-02-05T09:38:30.924Z,6.10
2019-02-05T09:41:01.468Z,6.20
2019-02-05T09:43:31.599Z,6.30
2019-02-05T09:46:01.772Z,6.40
2019-02-05T09:48:32.121Z,6.40
2019-02-05T09:51:02.244Z,6.50
2019-02-05T09:53:32.388Z,6.50
2019-02-05T09:56:03.126Z,6.50
2019-02-05T09:58:33.355Z,6.50
2019-02-05T10:01:03.710Z,6.50
2019-02-05T10:03:34.705Z,6.50
2019-02-05T10:06:05.259Z,6.60
2019-02-05T10:08:35.421Z,6.70
2019-02-05T10:11:05.882Z,6.70
2019-02-05T10:13:36.019Z,6.80
2019-02-05T10:16:06.193Z,6.70
2019-02-05T10:18:36.339Z,6.70
2019-02-05T10:21:06.807Z,6.70
2019-02-05T10:23:36.943Z,6.80
2019-02-05T10:26:07.531Z,6.90
2019-02-05T10:28:37.688Z,6.90
2019-02-05T10:31:07.874Z,6.90
2019-02-05T10:33:38.033Z,6.90
2019-02-05T10:36:08.244Z,6.90
2019-02-05T10:38:38.481Z,6.90
2019-02-05T10:41:09.032Z,7.00
2019-02-05T10:43:39.256Z,7.10
2019-02-05T10:46:09.615Z,7.10
2019-02-05T10:48:39.762Z,7.10
2019-02-05T10:51:09.955Z,7.10
2019-02-05T10:53:40.180Z,7.10
2019-02-05T10:56:10.834Z,7.10
2019-02-05T10:58:41.000Z,7.10
2019-02-05T11:01:11.247Z,7.00
2019-02-05T11:03:59.059Z,7.10
2019-02-05T11:06:47.123Z,7.20
2019-02-05T11:09:17.349Z,7.00
2019-02-05T11:11:47.524Z,7.00
2019-02-05T11:14:17.650Z,7.10
2019-02-05T11:16:47.894Z,7.20
2019-02-05T11:19:18.694Z,7.30
2019-02-05T11:21:48.978Z,7.30
2019-02-05T11:24:20.661Z,7.30
2019-02-05T11:26:50.860Z,7.30
2019-02-05T11:29:21.026Z,7.30
2019-02-05T11:31:51.154Z,7.40
2019-02-05T11:34:23.937Z,7.40
2019-02-05T11:36:54.117Z,7.40
2019-02-05T11:39:24.263Z,7.40
2019-02-05T11:41:54.413Z,7.50
2019-02-05T11:44:24.574Z,7.50
2019-02-05T11:46:54.842Z,7.50
2019-02-05T11:49:26.975Z,7.50
2019-02-05T11:51:57.143Z,7.60
2019-02-05T11:54:27.320Z,7.60
2019-02-05T11:56:59.874Z,7.70
2019-02-05T11:59:30.010Z,7.60
2019-02-05T12:02:00.263Z,7.60
2019-02-05T12:04:34.752Z,7.80
2019-02-05T12:07:05.131Z,8.00
2019-02-05T12:09:35.307Z,8.10
2019-02-05T12:12:05.659Z,8.20
2019-02-05T12:14:35.793Z,8.30
2019-02-05T12:17:06.423Z,8.20
2019-02-05T12:19:37.062Z,8.30
2019-02-05T12:22:08.968Z,8.40
2019-02-05T12:24:39.463Z,8.30
2019-02-05T12:27:09.990Z,8.40
2019-02-05T12:29:40.221Z,8.40
2019-02-05T12:32:10.512Z,8.40
2019-02-05T12:34:40.957Z,8.50
2019-02-05T12:37:11.122Z,8.50
2019-02-05T12:39:41.286Z,8.40
2019-02-05T12:42:11.458Z,8.40
2019-02-05T12:44:41.599Z,8.60
2019-02-05T12:47:11.834Z,8.60
2019-02-05T12:49:42.073Z,8.60
2019-02-05T12:52:12.583Z,8.60
2019-02-05T12:54:42.882Z,8.60
2019-02-05T12:57:13.120Z,8.50
2019-02-05T12:59:43.210Z,8.60
2019-02-05T13:02:13.449Z,8.60
2019-02-05T13:04:43.759Z,8.50
2019-02-05T13:07:13.949Z,8.50
2019-02-05T13:09:45.860Z,8.60
2019-02-05T13:12:16.173Z,8.70
2019-02-05T13:14:46.403Z,8.80
2019-02-05T13:17:16.978Z,8.90
2019-02-05T13:19:47.133Z,8.90
2019-02-05T13:22:17.318Z,8.90
2019-02-05T13:24:47.445Z,9.00
2019-02-05T13:27:19.635Z,9.00
2019-02-05T13:29:50.173Z,9.10
2019-02-05T13:32:20.355Z,9.20
2019-02-05T13:34:50.572Z,9.00
2019-02-05T13:37:20.754Z,8.90
2019-02-05T13:39:50.896Z,8.90
2019-02-05T13:42:21.158Z,8.70
2019-02-05T13:44:51.318Z,8.60
2019-02-05T13:47:24.529Z,8.40
2019-02-05T13:49:55.048Z,8.30
2019-02-05T13:52:25.267Z,8.20
2019-02-05T13:54:55.444Z,8.10
2019-02-05T13:57:26.123Z,7.90
2019-02-05T13:59:56.260Z,7.90
2019-02-05T14:02:26.423Z,7.80
2019-02-05T14:04:56.563Z,7.80
2019-02-05T14:07:26.803Z,7.80
2019-02-05T14:09:56.935Z,7.80
2019-02-05T14:12:27.106Z,7.80
2019-02-05T14:14:57.226Z,7.70
2019-02-05T14:17:27.485Z,7.70
2019-02-05T14:19:57.687Z,7.80
2019-02-05T14:22:27.925Z,7.90
2019-02-05T14:24:58.325Z,7.90
2019-02-05T14:27:28.476Z,7.80
2019-02-05T14:29:58.700Z,7.70
2019-02-05T14:32:30.783Z,7.60
2019-02-05T14:35:00.715Z,7.50
2019-02-05T14:37:30.913Z,7.30
2019-02-05T14:40:01.246Z,7.20
2019-02-05T14:42:31.427Z,7.00
2019-02-05T14:45:01.661Z,6.80
2019-02-05T14:47:33.529Z,6.70
2019-02-05T14:50:08.263Z,6.70
2019-02-05T14:52:38.841Z,6.70
2019-02-05T14:55:09.076Z,6.80
2019-02-05T14:57:39.263Z,6.80
2019-02-05T15:00:14.238Z,6.90
2019-02-05T15:02:45.659Z,7.10
2019-02-05T15:05:16.096Z,7.10
2019-02-05T15:07:46.250Z,7.20
2019-02-05T15:10:16.975Z,7.30
2019-02-05T15:12:48.253Z,7.40
2019-02-05T15:15:19.106Z,7.60
2019-02-05T15:17:49.771Z,7.70
2019-02-05T15:20:40.598Z,7.70
2019-02-05T15:23:11.748Z,7.70
2019-02-05T15:25:42.010Z,7.70
2019-02-05T15:28:14.928Z,7.70
2019-02-05T15:30:45.944Z,7.80
2019-02-05T15:33:36.880Z,7.80
2019-02-05T15:36:20.306Z,7.80
2019-02-05T15:38:51.025Z,7.80
2019-02-05T15:41:21.249Z,7.80
2019-02-05T15:43:51.468Z,7.80
2019-02-05T15:46:21.646Z,7.70
2019-02-05T15:48:52.138Z,7.70
2019-02-05T15:51:22.335Z,7.70
2019-02-05T15:53:52.527Z,7.60
2019-02-05T15:56:22.641Z,7.50
2019-02-05T15:58:52.820Z,7.50
2019-02-05T16:01:22.961Z,7.40
2019-02-05T16:03:53.190Z,7.40
2019-02-05T16:06:22.871Z,7.30
2019-02-05T16:08:53.027Z,7.30
2019-02-05T16:11:23.270Z,7.30
2019-02-05T16:13:53.940Z,7.30
2019-02-05T16:16:24.516Z,7.30
2019-02-05T16:18:54.853Z,7.20
2019-02-05T16:21:25.213Z,7.20
2019-02-05T16:23:58.185Z,7.10
2019-02-05T16:26:27.321Z,7.10
2019-02-05T16:28:57.600Z,7.10
2019-02-05T16:31:28.091Z,7.10
2019-02-05T16:33:59.964Z,7.10
2019-02-05T16:36:30.188Z,7.00
2019-02-05T16:39:00.332Z,7.00
2019-02-05T16:41:30.454Z,7.00
2019-02-05T16:44:01.060Z,7.00
2019-02-05T16:46:31.261Z,7.00
2019-02-05T16:49:01.561Z,7.00
2019-02-05T16:51:31.776Z,7.00
2019-02-05T16:54:02.028Z,6.90
2019-02-05T16:56:32.187Z,6.90
2019-02-05T16:59:02.515Z,6.90
2019-02-05T17:01:34.338Z,6.90
2019-02-05T17:04:06.313Z,6.90
2019-02-05T17:06:36.648Z,7.00
2019-02-05T17:09:15.564Z,7.00
2019-02-05T17:11:45.794Z,7.00
2019-02-05T17:14:15.993Z,7.00
2019-02-05T17:16:46.267Z,7.00
2019-02-05T17:19:16.464Z,7.10
2019-02-05T17:21:46.619Z,7.00
2019-02-05T17:24:17.201Z,7.00
2019-02-05T17:26:47.461Z,7.00
2019-02-05T17:29:18.007Z,6.90
2019-02-05T17:31:48.212Z,6.90
2019-02-05T17:34:18.493Z,6.90
2019-02-05T17:36:48.642Z,6.90
2019-02-05T17:39:38.037Z,6.90
2019-02-05T17:42:19.691Z,6.90
2019-02-05T17:45:02.031Z,6.90
2019-02-05T17:48:36.774Z,6.90
2019-02-05T17:52:31.254Z,6.80
2019-02-05T17:55:22.633Z,6.80
2019-02-05T17:57:54.361Z,6.70
2019-02-05T18:00:28.386Z,6.70
2019-02-05T18:02:58.566Z,6.70
2019-02-05T18:05:28.732Z,6.70
2019-02-05T18:07:59.313Z,6.70
2019-02-05T18:10:29.788Z,6.80
2019-02-05T18:13:00.258Z,6.80
2019-02-05T18:15:32.184Z,6.70
2019-02-05T18:18:02.368Z,6.70
2019-02-05T18:20:32.513Z,6.70
2019-02-05T18:23:02.764Z,6.60
2019-02-05T18:25:35.831Z,6.50
2019-02-05T18:28:07.623Z,6.30
2019-02-05T18:30:38.458Z,6.10
2019-02-05T18:33:08.786Z,5.90
2019-02-05T18:35:39.381Z,5.80
2019-02-05T18:38:11.866Z,5.70
2019-02-05T18:40:42.106Z,5.50
2019-02-05T18:43:12.804Z,5.40
2019-02-05T18:45:43.079Z,5.40
2019-02-05T18:48:13.448Z,5.30
2019-02-05T18:50:43.599Z,5.20
2019-02-05T18:53:13.817Z,5.20
2019-02-05T18:55:44.033Z,5.10
2019-02-05T18:58:14.264Z,5.00
2019-02-05T19:00:44.517Z,4.90
2019-02-05T19:03:16.295Z,4.80
2019-02-05T19:05:46.868Z,4.70
2019-02-05T19:08:29.377Z,4.70
2019-02-05T19:11:11.532Z,4.60
2019-02-05T19:13:53.923Z,4.60
2019-02-05T19:16:36.224Z,4.50
2019-02-05T19:19:18.384Z,4.50
2019-02-05T19:22:00.809Z,4.40
2019-02-05T19:27:44.116Z,4.20
2019-02-05T19:30:26.945Z,4.20
2019-02-05T19:33:09.015Z,4.20
2019-02-05T19:35:50.790Z,4.10
2019-02-05T19:38:32.598Z,4.10
2019-02-05T19:41:14.664Z,4.10
2019-02-05T19:43:56.482Z,4.10
2019-02-05T19:47:01.506Z,4.00
2019-02-05T19:50:04.018Z,4.00
2019-02-05T19:52:46.957Z,3.90
2019-02-05T19:55:29.204Z,3.90
2019-02-05T19:58:12.134Z,3.80
2019-02-05T20:00:53.953Z,3.80
2019-02-05T20:03:38.722Z,3.80
2019-02-05T20:06:19.896Z,3.70
2019-02-05T20:09:01.846Z,3.60
2019-02-05T20:11:45.229Z,3.60
2019-02-05T20:14:27.269Z,3.50
2019-02-05T20:17:09.600Z,3.50
2019-02-05T20:19:51.596Z,3.50
2019-02-05T20:22:33.348Z,3.50
2019-02-05T20:25:15.805Z,3.50
2019-02-05T20:27:57.709Z,3.50
2019-02-05T20:30:40.147Z,3.40
2019-02-05T20:33:23.949Z,3.40
2019-02-05T20:36:06.225Z,3.40
2019-02-05T20:38:48.295Z,3.40
2019-02-05T20:41:31.288Z,3.40
2019-02-05T20:44:13.363Z,3.30
2019-02-05T20:46:55.804Z,3.20
2019-02-05T20:49:38.072Z,3.20
2019-02-05T20:52:20.179Z,3.20
2019-02-05T20:55:02.171Z,3.20
2019-02-05T20:57:44.231Z,3.10
2019-02-05T21:00:26.446Z,3.00
2019-02-05T21:03:08.561Z,2.90
2019-02-05T21:05:51.402Z,2.80
2019-02-05T21:08:33.457Z,2.70
2019-02-05T21:11:15.246Z,2.60
2019-02-05T21:13:57.922Z,2.60
2019-02-05T21:16:39.861Z,2.60
2019-02-05T21:19:23.050Z,2.60
2019-02-05T21:22:08.463Z,2.60
2019-02-05T21:24:49.405Z,2.60
2019-02-05T21:27:31.319Z,2.50
2019-02-05T21:30:14.645Z,2.50
2019-02-05T21:32:56.981Z,2.40
2019-02-05T21:35:38.897Z,2.40
2019-02-05T21:38:20.900Z,2.40
2019-02-05T21:41:03.666Z,2.30
2019-02-05T21:43:47.379Z,2.30
2019-02-05T21:46:29.471Z,2.20
2019-02-05T21:49:11.546Z,2.20
2019-02-05T21:51:53.511Z,2.10
2019-02-05T21:54:35.653Z,2.10
2019-02-05T21:57:17.697Z,2.10
2019-02-05T21:59:59.610Z,2.10
2019-02-05T22:02:41.237Z,2.10
2019-02-05T22:05:23.438Z,2.10
2019-02-05T22:08:08.627Z,2.00
2019-02-05T22:10:49.924Z,2.00
2019-02-05T22:13:31.991Z,2.00
2019-02-05T22:16:14.331Z,2.00
2019-02-05T22:18:56.555Z,2.00
2019-02-05T22:21:39.979Z,1.90
2019-02-05T22:24:22.155Z,1.90
2019-02-05T22:27:04.385Z,1.90
2019-02-05T22:29:46.456Z,1.90
2019-02-05T22:32:28.966Z,1.90
2019-02-05T22:35:10.966Z,1.90
2019-02-05T22:37:53.809Z,1.80
2019-02-05T22:40:35.775Z,1.80
2019-02-05T22:43:17.903Z,1.80
2019-02-05T22:46:00.653Z,1.80
2019-02-05T22:48:42.720Z,1.80
2019-02-05T22:51:24.988Z,1.80
2019-02-05T22:54:06.753Z,1.70
2019-02-05T22:56:48.585Z,1.70
2019-02-05T22:59:30.981Z,1.60
2019-02-05T23:02:14.156Z,1.60
2019-02-05T23:04:56.516Z,1.50
2019-02-05T23:07:38.371Z,1.50
2019-02-05T23:10:21.072Z,1.40
2019-02-05T23:13:03.213Z,1.40
2019-02-05T23:15:45.186Z,1.30
2019-02-05T23:18:27.645Z,1.30
2019-02-05T23:21:09.696Z,1.30
2019-02-05T23:23:52.149Z,1.30
2019-02-05T23:26:33.934Z,1.30
2019-02-05T23:29:15.697Z,1.30
2019-02-05T23:31:57.844Z,1.30
2019-02-05T23:34:39.711Z,1.40
2019-02-05T23:37:21.920Z,1.40
2019-02-05T23:40:03.839Z,1.40
2019-02-05T23:42:46.016Z,1.50
2019-02-05T23:45:28.077Z,1.50
2019-02-05T23:48:09.745Z,1.50
2019-02-05T23:50:51.488Z,1.50
2019-02-05T23:53:34.776Z,1.60
2019-02-05T23:56:25.467Z,1.60
2019-02-05T23:59:00.810Z,1.60
